createdAt,value
2022-10-11T00:01:31.172Z,8.10
2022-10-11T00:05:37.921Z,8.00
2022-10-11T00:09:44.771Z,8.00
2022-10-11T00:13:51.505Z,7.90
2022-10-11T00:18:01.038Z,7.90
2022-10-11T00:22:09.960Z,8.00
2022-10-11T00:26:17.628Z,8.00
2022-10-11T00:30:24.302Z,7.90
2022-10-11T00:34:31.154Z,7.80
2022-10-11T00:38:37.805Z,7.70
2022-10-11T00:42:44.540Z,7.70
2022-10-11T00:47:12.468Z,7.60
2022-10-11T00:51:52.250Z,7.60
2022-10-11T00:56:09.879Z,7.60
2022-10-11T01:00:16.900Z,7.60
2022-10-11T01:04:23.933Z,7.50
2022-10-11T01:08:31.634Z,7.50
2022-10-11T01:13:01.847Z,7.40
2022-10-11T01:17:18.759Z,7.40
2022-10-11T01:21:44.022Z,7.40
2022-10-11T01:25:50.654Z,7.40
2022-10-11T01:30:03.451Z,7.40
2022-10-11T01:34:20.025Z,7.50
2022-10-11T01:38:34.833Z,7.50
2022-10-11T01:42:43.163Z,7.50
2022-10-11T01:46:51.881Z,7.40
2022-10-11T01:51:02.101Z,7.40
2022-10-11T01:55:32.299Z,7.40
2022-10-11T01:59:54.038Z,7.40
2022-10-11T02:04:27.042Z,7.30
2022-10-11T02:08:54.880Z,7.30
2022-10-11T02:13:49.750Z,7.20
2022-10-11T02:17:59.566Z,7.10
2022-10-11T02:22:13.393Z,7.00
2022-10-11T02:26:21.999Z,6.90
2022-10-11T02:30:30.645Z,6.90
2022-10-11T02:34:44.941Z,6.90
2022-10-11T02:38:58.653Z,6.90
2022-10-11T02:43:11.911Z,6.90
2022-10-11T02:47:18.940Z,7.00
2022-10-11T02:51:29.524Z,7.00
2022-10-11T02:55:36.503Z,6.90
2022-10-11T02:59:43.449Z,6.80
2022-10-11T03:03:50.675Z,6.70
2022-10-11T03:07:57.385Z,6.70
2022-10-11T03:12:04.319Z,6.60
2022-10-11T03:16:11.299Z,6.50
2022-10-11T03:20:18.169Z,6.50
2022-10-11T03:24:25.228Z,6.60
2022-10-11T03:28:32.019Z,6.60
2022-10-11T03:32:38.821Z,6.60
2022-10-11T03:36:45.479Z,6.70
2022-10-11T03:40:52.196Z,6.70
2022-10-11T03:44:59.813Z,6.80
2022-10-11T03:49:06.511Z,6.80
2022-10-11T03:53:13.223Z,6.70
2022-10-11T03:57:20.314Z,6.70
2022-10-11T04:01:27.087Z,6.60
2022-10-11T04:05:33.842Z,6.60
2022-10-11T04:09:40.722Z,6.60
2022-10-11T04:13:47.364Z,6.50
2022-10-11T04:17:54.027Z,6.60
2022-10-11T04:22:00.694Z,6.50
2022-10-11T04:26:08.767Z,6.50
2022-10-11T04:30:16.484Z,6.60
2022-10-11T04:34:23.429Z,6.60
2022-10-11T04:38:30.122Z,6.70
2022-10-11T04:42:36.808Z,6.70
2022-10-11T04:46:43.486Z,6.70
2022-10-11T04:50:50.321Z,6.60
2022-10-11T04:54:57.001Z,6.60
2022-10-11T04:59:03.949Z,6.60
2022-10-11T05:03:10.602Z,6.50
2022-10-11T05:07:17.389Z,6.50
2022-10-11T05:11:24.207Z,6.50
2022-10-11T05:15:30.877Z,6.50
2022-10-11T05:19:37.687Z,6.50
2022-10-11T05:23:44.773Z,6.40
2022-10-11T05:27:51.464Z,6.30
2022-10-11T05:31:58.110Z,6.20
2022-10-11T05:36:06.233Z,6.10
2022-10-11T05:40:13.390Z,6.00
2022-10-11T05:44:20.205Z,6.00
2022-10-11T05:48:28.439Z,5.90
2022-10-11T05:52:35.184Z,5.90
2022-10-11T05:56:41.891Z,5.90
2022-10-11T06:00:48.599Z,5.90
2022-10-11T06:04:55.264Z,5.90
2022-10-11T06:09:01.963Z,5.90
2022-10-11T06:13:09.425Z,6.00
2022-10-11T06:17:16.089Z,6.00
2022-10-11T06:21:23.756Z,6.00
2022-10-11T06:25:30.435Z,6.00
2022-10-11T06:29:37.241Z,6.00
2022-10-11T06:33:44.289Z,6.00
2022-10-11T06:37:51.393Z,6.10
2022-10-11T06:41:58.102Z,6.30
2022-10-11T06:46:05.348Z,6.40
2022-10-11T06:50:13.338Z,6.50
2022-10-11T06:54:20.095Z,6.70
2022-10-11T06:58:28.591Z,7.00
2022-10-11T07:02:35.304Z,7.20
2022-10-11T07:06:42.188Z,7.50
2022-10-11T07:10:48.860Z,7.60
2022-10-11T07:14:55.532Z,7.80
2022-10-11T07:19:04.704Z,7.90
2022-10-11T07:23:12.094Z,8.00
2022-10-11T07:27:18.752Z,8.00
2022-10-11T07:31:26.209Z,8.10
2022-10-11T07:35:36.693Z,8.30
2022-10-11T07:39:43.358Z,8.40
2022-10-11T07:43:51.026Z,8.60
2022-10-11T07:47:58.258Z,8.80
2022-10-11T07:52:05.099Z,8.90
2022-10-11T07:56:14.140Z,9.00
2022-10-11T08:00:20.890Z,9.10
2022-10-11T08:04:27.563Z,9.30
2022-10-11T08:08:34.658Z,9.40
2022-10-11T08:12:41.294Z,9.50
2022-10-11T08:16:48.082Z,9.70
2022-10-11T08:20:54.787Z,10.00
2022-10-11T08:25:01.466Z,10.20
2022-10-11T08:29:08.191Z,10.40
2022-10-11T08:33:15.243Z,10.60
2022-10-11T08:37:21.919Z,10.70
2022-10-11T08:41:49.774Z,10.80
2022-10-11T08:45:59.792Z,10.90
2022-10-11T08:50:15.618Z,10.90
2022-10-11T08:54:42.694Z,11.00
2022-10-11T08:58:58.522Z,11.40
2022-10-11T09:03:41.527Z,11.90
2022-10-11T09:07:54.222Z,12.50
2022-10-11T09:12:31.927Z,12.90
2022-10-11T09:16:50.944Z,13.30
2022-10-11T09:21:18.688Z,13.70
2022-10-11T09:25:33.105Z,14.00
2022-10-11T09:30:03.882Z,14.40
2022-10-11T09:34:13.569Z,14.70
2022-10-11T09:39:06.492Z,14.80
2022-10-11T09:43:13.723Z,15.20
2022-10-11T09:47:27.313Z,15.50
2022-10-11T09:51:34.660Z,15.80
2022-10-11T09:55:53.037Z,16.00
2022-10-11T10:00:12.011Z,16.20
2022-10-11T10:04:18.802Z,16.60
2022-10-11T10:08:26.873Z,16.60
2022-10-11T10:12:33.564Z,16.90
2022-10-11T10:16:40.240Z,17.20
2022-10-11T10:20:52.757Z,17.30
2022-10-11T10:25:02.965Z,17.40
2022-10-11T10:29:09.610Z,17.30
2022-10-11T10:33:17.107Z,17.30
2022-10-11T10:37:33.415Z,17.40
2022-10-11T10:41:40.182Z,17.50
2022-10-11T10:45:52.683Z,17.70
2022-10-11T10:50:08.849Z,17.80
2022-10-11T10:54:29.152Z,17.80
2022-10-11T10:58:57.769Z,17.20
2022-10-11T11:03:15.774Z,16.30
2022-10-11T11:07:54.642Z,16.50
2022-10-11T11:12:23.541Z,16.90
2022-10-11T11:16:44.946Z,17.30
2022-10-11T11:21:20.897Z,17.30
2022-10-11T11:25:52.194Z,16.80
2022-10-11T11:30:17.258Z,16.60
2022-10-11T11:34:30.461Z,16.60
2022-10-11T11:38:57.448Z,16.60
2022-10-11T11:43:12.062Z,16.90
2022-10-11T11:47:23.799Z,16.90
2022-10-11T11:51:45.129Z,16.90
2022-10-11T11:56:04.274Z,17.60
2022-10-11T12:00:25.323Z,17.90
2022-10-11T12:04:35.858Z,17.40
2022-10-11T12:08:46.346Z,16.70
2022-10-11T12:13:19.390Z,16.20
2022-10-11T12:17:26.223Z,16.20
2022-10-11T12:21:35.454Z,16.90
2022-10-11T12:25:43.642Z,17.30
2022-10-11T12:29:51.071Z,17.40
2022-10-11T12:34:09.788Z,17.70
2022-10-11T12:38:33.909Z,17.90
2022-10-11T12:43:12.094Z,18.10
2022-10-11T12:47:40.904Z,18.30
2022-10-11T12:52:01.489Z,18.50
2022-10-11T12:56:38.224Z,18.70
2022-10-11T13:00:50.939Z,19.20
2022-10-11T13:05:20.511Z,19.40
2022-10-11T13:09:39.369Z,19.70
2022-10-11T13:14:05.510Z,19.70
2022-10-11T13:18:14.635Z,20.00
2022-10-11T13:22:25.359Z,20.10
2022-10-11T13:26:33.163Z,20.70
2022-10-11T13:30:45.638Z,20.40
2022-10-11T13:39:28.561Z,20.50
2022-10-11T13:43:40.628Z,20.50
2022-10-11T13:47:48.826Z,20.40
2022-10-11T13:52:01.498Z,19.90
2022-10-11T13:56:09.512Z,18.90
2022-10-11T14:00:17.441Z,17.90
2022-10-11T14:04:28.795Z,17.30
2022-10-11T14:08:59.243Z,16.90
2022-10-11T14:13:22.870Z,16.60
2022-10-11T14:17:47.726Z,16.20
2022-10-11T14:21:54.437Z,16.00
2022-10-11T14:26:01.145Z,15.70
2022-10-11T14:30:31.486Z,15.60
2022-10-11T14:34:38.678Z,15.60
2022-10-11T14:38:45.406Z,15.50
2022-10-11T14:42:52.280Z,15.60
2022-10-11T14:46:59.715Z,15.60
2022-10-11T14:51:07.159Z,15.70
2022-10-11T14:55:13.906Z,15.80
2022-10-11T14:59:25.241Z,15.80
2022-10-11T15:03:31.921Z,15.70
2022-10-11T15:07:38.822Z,15.60
2022-10-11T15:11:45.514Z,15.50
2022-10-11T15:15:52.227Z,15.40
2022-10-11T15:19:58.887Z,15.40
2022-10-11T15:24:05.811Z,15.30
2022-10-11T15:28:31.893Z,15.10
2022-10-11T15:32:38.609Z,14.90
2022-10-11T15:36:45.499Z,14.80
2022-10-11T15:40:52.999Z,14.70
2022-10-11T15:44:59.653Z,14.70
2022-10-11T15:49:11.692Z,14.60
2022-10-11T15:53:24.844Z,14.60
2022-10-11T15:57:31.511Z,14.50
2022-10-11T16:01:38.599Z,14.50
2022-10-11T16:05:45.408Z,14.50
2022-10-11T16:09:52.162Z,14.50
2022-10-11T16:13:58.926Z,14.40
2022-10-11T16:18:07.031Z,14.30
2022-10-11T16:22:14.042Z,14.20
2022-10-11T16:26:20.806Z,14.10
2022-10-11T16:30:27.448Z,14.00
2022-10-11T16:34:34.651Z,13.80
2022-10-11T16:38:41.349Z,13.80
2022-10-11T16:42:48.409Z,13.70
2022-10-11T16:46:55.803Z,13.60
2022-10-11T16:51:07.148Z,13.50
2022-10-11T16:55:13.874Z,13.50
2022-10-11T16:59:20.662Z,13.40
2022-10-11T17:03:28.443Z,13.30
2022-10-11T17:07:35.233Z,13.20
2022-10-11T17:11:43.147Z,13.10
2022-10-11T17:15:50.669Z,13.00
2022-10-11T17:19:57.391Z,12.90
2022-10-11T17:24:04.102Z,12.80
2022-10-11T17:28:11.368Z,12.50
2022-10-11T17:32:18.070Z,12.50
2022-10-11T17:36:31.789Z,12.20
2022-10-11T17:40:38.455Z,12.10
2022-10-11T17:44:45.147Z,12.00
2022-10-11T17:48:52.556Z,12.00
2022-10-11T17:52:59.435Z,12.20
2022-10-11T17:57:06.117Z,12.20
2022-10-11T18:01:15.583Z,12.20
2022-10-11T18:05:22.289Z,12.10
2022-10-11T18:09:29.238Z,12.00
2022-10-11T18:13:35.946Z,12.10
2022-10-11T18:17:42.642Z,12.10
2022-10-11T18:21:49.378Z,12.10
2022-10-11T18:25:56.054Z,12.10
2022-10-11T18:30:02.796Z,12.10
2022-10-11T18:34:12.933Z,12.10
2022-10-11T18:38:19.612Z,12.10
2022-10-11T18:42:26.332Z,12.10
2022-10-11T18:46:33.506Z,12.00
2022-10-11T18:50:40.192Z,12.40
2022-10-11T18:54:46.861Z,11.90
2022-10-11T18:58:55.437Z,11.90
2022-10-11T19:03:02.111Z,11.80
2022-10-11T19:07:08.915Z,11.70
2022-10-11T19:11:17.385Z,11.70
2022-10-11T19:15:28.507Z,11.60
2022-10-11T19:19:35.482Z,11.50
2022-10-11T19:23:44.643Z,11.30
2022-10-11T19:27:51.294Z,11.20
2022-10-11T19:32:00.469Z,11.20
2022-10-11T19:36:07.363Z,11.20
2022-10-11T19:40:14.067Z,11.10
2022-10-11T19:44:20.866Z,11.10
2022-10-11T19:48:28.005Z,11.00
2022-10-11T19:52:34.840Z,11.00
2022-10-11T19:56:42.562Z,11.00
2022-10-11T20:00:58.459Z,10.90
2022-10-11T20:05:05.537Z,10.90
2022-10-11T20:13:39.806Z,10.70
2022-10-11T20:17:49.349Z,10.60
2022-10-11T20:21:56.023Z,10.50
2022-10-11T20:26:04.920Z,10.40
2022-10-11T20:30:12.401Z,10.30
2022-10-11T20:34:19.087Z,10.20
2022-10-11T20:38:26.258Z,10.10
2022-10-11T20:42:32.954Z,10.00
2022-10-11T20:46:39.790Z,10.00
2022-10-11T20:50:46.439Z,10.10
2022-10-11T20:54:53.097Z,10.10
2022-10-11T20:58:59.847Z,10.10
2022-10-11T21:03:06.704Z,10.00
2022-10-11T21:07:13.354Z,9.90
2022-10-11T21:11:20.034Z,9.80
2022-10-11T21:15:28.895Z,9.70
2022-10-11T21:19:35.546Z,9.70
2022-10-11T21:23:42.267Z,9.60
2022-10-11T21:27:48.941Z,9.60
2022-10-11T21:31:55.613Z,9.60
2022-10-11T21:36:17.275Z,9.50
2022-10-11T21:40:24.440Z,9.40
2022-10-11T21:44:32.495Z,9.30
2022-10-11T21:48:39.458Z,9.20
2022-10-11T21:52:46.142Z,9.20
2022-10-11T21:56:52.975Z,9.10
2022-10-11T22:00:59.670Z,8.90
2022-10-11T22:05:06.437Z,8.80
2022-10-11T22:09:13.191Z,8.70
2022-10-11T22:13:20.244Z,8.70
2022-10-11T22:17:26.895Z,8.60
2022-10-11T22:21:33.567Z,8.50
2022-10-11T22:25:40.745Z,8.50
2022-10-11T22:29:47.381Z,8.50
2022-10-11T22:33:55.231Z,8.40
2022-10-11T22:38:01.870Z,8.30
2022-10-11T22:42:08.547Z,8.20
2022-10-11T22:46:15.433Z,8.20
2022-10-11T22:50:22.187Z,8.10
2022-10-11T22:54:28.835Z,8.00
2022-10-11T22:58:35.681Z,8.00
2022-10-11T23:02:42.449Z,8.00
2022-10-11T23:06:49.105Z,7.90
2022-10-11T23:10:55.763Z,7.80
2022-10-11T23:15:02.415Z,7.80
2022-10-11T23:19:09.080Z,7.70
2022-10-11T23:23:15.829Z,7.70
2022-10-11T23:27:22.493Z,7.50
2022-10-11T23:31:29.194Z,7.40
2022-10-11T23:35:35.857Z,7.50
2022-10-11T23:39:42.538Z,7.50
2022-10-11T23:43:49.274Z,7.50
2022-10-11T23:47:56.076Z,7.50
2022-10-11T23:52:02.830Z,7.40
2022-10-11T23:56:10.818Z,7.40
